Time,TemperatureF,DewpointF,PressureIn,WindDirection,WindDirectionDegrees,WindSpeedMPH,WindSpeedGustMPH,Humidity,HourlyPrecipIn,Conditions,Clouds,dailyrainin,SoftwareType,DateUTC
2013-04-30 00:02:00,39.0,-99.9,30.13,NNE,18,1.0,2.0,-999,-99.99,,,-99.99,,2013-04-30 08:02:00,
2013-04-30 00:11:00,39.0,-99.9,30.13,NNE,18,2.0,3.0,-999,-99.99,,,-99.99,,2013-04-30 08:11:00,
2013-04-30 00:22:00,39.0,-99.9,30.13,SE,136,2.0,2.0,-999,-99.99,,,-99.99,,2013-04-30 08:22:00,
2013-04-30 00:32:00,38.0,-99.9,30.13,ESE,106,2.0,3.0,-999,-99.99,,,-99.99,,2013-04-30 08:32:00,
2013-04-30 00:42:00,38.0,-99.9,30.13,SSE,163,0.0,2.0,-999,-99.99,,,-99.99,,2013-04-30 08:42:00,
2013-04-30 00:52:00,38.0,-99.9,30.13,SSE,157,1.0,1.0,-999,-99.99,,,-99.99,,2013-04-30 08:52:00,
2013-04-30 01:02:00,38.0,-99.9,30.13,SSE,158,3.0,3.0,-999,-99.99,,,-99.99,,2013-04-30 09:02:00,
2013-04-30 01:11:00,38.0,-99.9,30.12,ENE,59,-999.0,0.0,-999,-99.99,,,-99.99,,2013-04-30 09:11:00,
2013-04-30 01:22:00,37.0,-99.9,30.12,NE,37,-999.0,2.0,-999,-99.99,,,-99.99,,2013-04-30 09:22:00,
2013-04-30 01:33:00,37.0,-99.9,30.12,SSE,156,2.0,2.0,-999,-99.99,,,-99.99,,2013-04-30 09:33:00,
2013-04-30 01:43:00,36.0,-99.9,30.11,SSE,151,2.0,2.0,-999,-99.99,,,-99.99,,2013-04-30 09:43:00,
2013-04-30 01:52:00,35.0,-99.9,30.11,NE,46,-999.0,0.0,-999,-99.99,,,-99.99,,2013-04-30 09:52:00,
2013-04-30 02:03:00,35.0,-99.9,30.11,North,-999,-999.0,-999.0,-999,-99.99,,,-99.99,,2013-04-30 10:03:00,
2013-04-30 02:12:00,35.0,-99.9,30.11,North,-999,-999.0,-999.0,-999,-99.99,,,-99.99,,2013-04-30 10:12:00,
2013-04-30 02:22:00,36.0,-99.9,30.10,ENE,70,0.0,1.0,-999,-99.99,,,-99.99,,2013-04-30 10:22:00,
2013-04-30 02:32:00,36.0,-99.9,30.10,SSE,163,1.0,2.0,-999,-99.99,,,-99.99,,2013-04-30 10:32:00,
2013-04-30 02:41:00,35.0,-99.9,30.10,SSE,155,3.0,3.0,-999,-99.99,,,-99.99,,2013-04-30 10:41:00,
2013-04-30 02:52:00,34.0,-99.9,30.09,SSE,152,2.0,3.0,-999,-99.99,,,-99.99,,2013-04-30 10:52:00,
2013-04-30 03:02:00,34.0,-99.9,30.09,South,187,2.0,2.0,-999,-99.99,,,-99.99,,2013-04-30 11:02:00,
2013-04-30 03:11:00,34.0,-99.9,30.09,SSE,161,3.0,4.0,-999,-99.99,,,-99.99,,2013-04-30 11:11:00,
2013-04-30 03:21:00,34.0,-99.9,30.09,SSE,153,4.0,4.0,-999,-99.99,,,-99.99,,2013-04-30 11:21:00,
2013-04-30 03:32:00,34.0,-99.9,30.09,SE,146,3.0,4.0,-999,-99.99,,,-99.99,,2013-04-30 11:32:00,
2013-04-30 03:42:00,33.0,-99.9,30.08,SSE,163,1.0,2.0,-999,-99.99,,,-99.99,,2013-04-30 11:42:00,
2013-04-30 03:52:00,33.0,-99.9,30.08,SSE,162,-999.0,4.0,-999,-99.99,,,-99.99,,2013-04-30 11:52:00,
2013-04-30 04:01:00,33.0,-99.9,30.08,South,169,4.0,4.0,-999,-99.99,,,-99.99,,2013-04-30 12:01:00,
2013-04-30 04:11:00,33.0,-99.9,30.07,SSE,159,4.0,5.0,-999,-99.99,,,-99.99,,2013-04-30 12:11:00,
2013-04-30 04:22:00,33.0,-99.9,30.07,SSE,162,3.0,3.0,-999,-99.99,,,-99.99,,2013-04-30 12:22:00,
2013-04-30 04:31:00,33.0,-99.9,30.06,SE,145,4.0,4.0,-999,-99.99,,,-99.99,,2013-04-30 12:31:00,
2013-04-30 04:42:00,33.0,-99.9,30.06,SSE,158,2.0,2.0,-999,-99.99,,,-99.99,,2013-04-30 12:42:00,
2013-04-30 04:51:00,33.0,-99.9,30.05,South,184,0.0,1.0,-999,-99.99,,,-99.99,,2013-04-30 12:51:00,
2013-04-30 05:01:00,33.0,-99.9,30.05,SE,142,0.0,1.0,-999,-99.99,,,-99.99,,2013-04-30 13:01:00,
2013-04-30 05:11:00,33.0,-99.9,30.05,SSE,149,1.0,2.0,-999,-99.99,,,-99.99,,2013-04-30 13:11:00,
2013-04-30 05:21:00,33.0,-99.9,30.05,SSE,157,2.0,2.0,-999,-99.99,,,-99.99,,2013-04-30 13:21:00,
2013-04-30 05:31:00,33.0,-99.9,30.04,SSE,148,2.0,2.0,-999,-99.99,,,-99.99,,2013-04-30 13:31:00,
2013-04-30 05:41:00,33.0,-99.9,30.04,SSE,147,3.0,4.0,-999,-99.99,,,-99.99,,2013-04-30 13:41:00,
2013-04-30 05:52:00,33.0,-99.9,30.04,South,174,2.0,3.0,-999,-99.99,,,-99.99,,2013-04-30 13:52:00,
2013-04-30 06:02:00,33.0,-99.9,30.04,South,170,2.0,2.0,-999,-99.99,,,-99.99,,2013-04-30 14:02:00,
2013-04-30 06:11:00,33.0,-99.9,30.04,SSE,153,4.0,4.0,-999,-99.99,,,-99.99,,2013-04-30 14:11:00,
2013-04-30 06:21:00,33.0,-99.9,30.03,SSE,156,4.0,5.0,-999,-99.99,,,-99.99,,2013-04-30 14:21:00,
2013-04-30 06:31:00,32.0,-99.9,30.03,SSE,152,4.0,4.0,-999,-99.99,,,-99.99,,2013-04-30 14:31:00,
2013-04-30 06:41:00,33.0,-99.9,30.03,South,176,4.0,5.0,-999,-99.99,,,-99.99,,2013-04-30 14:41:00,
2013-04-30 06:52:00,-999.0,-99.9,30.02,SE,138,2.0,3.0,-999,-99.99,,,-99.99,,2013-04-30 14:52:00,
2013-04-30 07:02:00,-999.0,-99.9,30.02,SSE,155,2.0,3.0,-999,-99.99,,,-99.99,,2013-04-30 15:02:00,
2013-04-30 07:11:00,-999.0,-99.9,30.01,SE,140,1.0,1.0,-999,-99.99,,,-99.99,,2013-04-30 15:11:00,
2013-04-30 07:21:00,33.0,-99.9,30.01,SSE,165,2.0,3.0,-999,-99.99,,,-99.99,,2013-04-30 15:21:00,
2013-04-30 07:32:00,33.0,-99.9,30.01,SSE,164,2.0,3.0,-999,-99.99,,,-99.99,,2013-04-30 15:32:00,
2013-04-30 07:42:00,33.0,-99.9,30.00,SE,134,3.0,4.0,-999,-99.99,,,-99.99,,2013-04-30 15:42:00,
2013-04-30 07:53:00,33.0,-99.9,30.00,SE,134,3.0,4.0,-999,-99.99,,,-99.99,,2013-04-30 15:53:00,
2013-04-30 08:02:00,33.0,-99.9,30.00,SSE,163,3.0,4.0,-999,-99.99,,,-99.99,,2013-04-30 16:02:00,
2013-04-30 08:13:00,34.0,-99.9,30.00,SSE,151,2.0,2.0,-999,-99.99,,,-99.99,,2013-04-30 16:13:00,
2013-04-30 08:23:00,36.0,-99.9,29.99,ESE,107,0.0,1.0,-999,-99.99,,,-99.99,,2013-04-30 16:23:00,
2013-04-30 08:33:00,37.0,-99.9,29.99,SE,137,-999.0,1.0,-999,-99.99,,,-99.99,,2013-04-30 16:33:00,
2013-04-30 08:42:00,37.0,-99.9,29.99,SSE,164,1.0,2.0,-999,-99.99,,,-99.99,,2013-04-30 16:42:00,
2013-04-30 08:53:00,36.0,-99.9,29.98,SSE,159,3.0,3.0,-999,-99.99,,,-99.99,,2013-04-30 16:53:00,
2013-04-30 09:02:00,37.0,-99.9,29.98,SSE,167,2.0,3.0,-999,-99.99,,,-99.99,,2013-04-30 17:02:00,
2013-04-30 09:12:00,37.0,-99.9,29.98,South,174,1.0,2.0,-999,-99.99,,,-99.99,,2013-04-30 17:12:00,
2013-04-30 09:22:00,39.0,-99.9,29.97,SSW,206,0.0,1.0,-999,-99.99,,,-99.99,,2013-04-30 17:22:00,
2013-04-30 09:32:00,39.0,-99.9,29.97,SSW,207,0.0,1.0,-999,-99.99,,,-99.99,,2013-04-30 17:32:00,
2013-04-30 09:42:00,39.0,-99.9,29.97,South,178,2.0,3.0,-999,-99.99,,,-99.99,,2013-04-30 17:42:00,
2013-04-30 09:53:00,40.0,-99.9,29.96,South,187,1.0,2.0,-999,-99.99,,,-99.99,,2013-04-30 17:53:00,
2013-04-30 10:01:00,40.0,-99.9,29.96,South,170,1.0,2.0,-999,-99.99,,,-99.99,,2013-04-30 18:01:00,
2013-04-30 10:11:00,46.0,-99.9,29.95,West,268,-999.0,1.0,-999,-99.99,,,-99.99,,2013-04-30 18:11:00,
2013-04-30 10:22:00,46.0,-99.9,29.95,North,-999,-999.0,-999.0,-999,-99.99,,,-99.99,,2013-04-30 18:22:00,
2013-04-30 10:32:00,49.0,-99.9,29.95,West,265,-999.0,0.0,-999,-99.99,,,-99.99,,2013-04-30 18:32:00,
2013-04-30 10:42:00,43.0,-99.9,29.94,SW,231,2.0,3.0,-999,-99.99,,,-99.99,,2013-04-30 18:42:00,
2013-04-30 10:52:00,43.0,-99.9,29.94,SSE,154,1.0,2.0,-999,-99.99,,,-99.99,,2013-04-30 18:52:00,
2013-04-30 11:02:00,44.0,-99.9,29.93,WNW,291,2.0,5.0,-999,-99.99,,,-99.99,,2013-04-30 19:02:00,
2013-04-30 11:11:00,43.0,-99.9,29.93,North,9,3.0,6.0,-999,-99.99,,,-99.99,,2013-04-30 19:11:00,
2013-04-30 11:22:00,43.0,-99.9,29.93,NE,34,4.0,7.0,-999,-99.99,,,-99.99,,2013-04-30 19:22:00,
2013-04-30 11:32:00,43.0,-99.9,29.93,NNE,22,3.0,7.0,-999,-99.99,,,-99.99,,2013-04-30 19:32:00,
2013-04-30 11:42:00,43.0,-99.9,29.93,NNE,18,3.0,7.0,-999,-99.99,,,-99.99,,2013-04-30 19:42:00,
2013-04-30 11:52:00,42.0,-99.9,29.92,North,7,6.0,8.0,-999,-99.99,,,-99.99,,2013-04-30 19:52:00,
2013-04-30 12:02:00,42.0,-99.9,29.92,North,10,5.0,8.0,-999,-99.99,,,-99.99,,2013-04-30 20:02:00,
2013-04-30 12:11:00,44.0,-99.9,29.92,NNE,16,5.0,8.0,-999,-99.99,,,-99.99,,2013-04-30 20:11:00,
2013-04-30 12:22:00,42.0,-99.9,29.92,North,360,6.0,9.0,-999,-99.99,,,-99.99,,2013-04-30 20:22:00,
2013-04-30 12:32:00,42.0,-99.9,29.92,NNE,12,5.0,9.0,-999,-99.99,,,-99.99,,2013-04-30 20:32:00,
2013-04-30 12:42:00,41.0,-99.9,29.92,NNE,30,8.0,10.0,-999,-99.99,,,-99.99,,2013-04-30 20:42:00,
2013-04-30 12:52:00,43.0,-99.9,29.91,NNE,22,3.0,8.0,-999,-99.99,,,-99.99,,2013-04-30 20:52:00,
2013-04-30 13:02:00,43.0,-99.9,29.91,North,7,6.0,8.0,-999,-99.99,,,-99.99,,2013-04-30 21:02:00,
2013-04-30 13:11:00,43.0,-99.9,29.91,NNE,20,5.0,9.0,-999,-99.99,,,-99.99,,2013-04-30 21:11:00,
2013-04-30 13:22:00,42.0,-99.9,29.91,NNE,24,5.0,10.0,-999,-99.99,,,-99.99,,2013-04-30 21:22:00,
2013-04-30 13:32:00,42.0,-99.9,29.91,NNE,24,7.0,10.0,-999,-99.99,,,-99.99,,2013-04-30 21:32:00,
2013-04-30 13:42:00,42.0,-99.9,29.90,North,-999,6.0,11.0,-999,-99.99,,,-99.99,,2013-04-30 21:42:00,
2013-04-30 13:53:00,42.0,-99.9,29.90,North,-999,6.0,11.0,-999,-99.99,,,-99.99,,2013-04-30 21:53:00,
2013-04-30 14:03:00,43.0,-99.9,29.89,NNE,21,4.0,10.0,-999,-99.99,,,-99.99,,2013-04-30 22:03:00,
2013-04-30 14:12:00,42.0,-99.9,29.89,NNE,22,7.0,11.0,-999,-99.99,,,-99.99,,2013-04-30 22:12:00,
2013-04-30 14:23:00,42.0,-99.9,29.88,NNE,19,7.0,11.0,-999,-99.99,,,-99.99,,2013-04-30 22:23:00,
2013-04-30 14:33:00,42.0,-99.9,29.88,NNE,19,7.0,10.0,-999,-99.99,,,-99.99,,2013-04-30 22:33:00,
2013-04-30 14:42:00,42.0,-99.9,29.88,NNE,31,5.0,10.0,-999,-99.99,,,-99.99,,2013-04-30 22:42:00,
2013-04-30 14:53:00,42.0,-99.9,29.88,NNE,22,8.0,11.0,-999,-99.99,,,-99.99,,2013-04-30 22:53:00,
2013-04-30 15:03:00,42.0,-99.9,29.87,NNE,25,5.0,8.0,-999,-99.99,,,-99.99,,2013-04-30 23:03:00,
2013-04-30 15:12:00,42.0,-99.9,29.87,NNE,30,7.0,11.0,-999,-99.99,,,-99.99,,2013-04-30 23:12:00,
2013-04-30 15:22:00,43.0,-99.9,29.87,NNE,25,5.0,11.0,-999,-99.99,,,-99.99,,2013-04-30 23:22:00,
2013-04-30 15:32:00,43.0,-99.9,29.87,NNE,23,7.0,11.0,-999,-99.99,,,-99.99,,2013-04-30 23:32:00,
2013-04-30 15:42:00,43.0,-99.9,29.86,NE,38,5.0,11.0,-999,-99.99,,,-99.99,,2013-04-30 23:42:00,
2013-04-30 15:52:00,44.0,-99.9,29.86,NNE,29,7.0,10.0,-999,-99.99,,,-99.99,,2013-04-30 23:52:00,
2013-04-30 16:02:00,43.0,-99.9,29.85,NE,38,6.0,9.0,-999,-99.99,,,-99.99,,2013-05-01 00:02:00,
2013-04-30 16:11:00,43.0,-99.9,29.85,ENE,69,4.0,9.0,-999,-99.99,,,-99.99,,2013-05-01 00:11:00,
2013-04-30 16:22:00,44.0,-99.9,29.85,NNE,31,4.0,9.0,-999,-99.99,,,-99.99,,2013-05-01 00:22:00,
2013-04-30 16:32:00,43.0,-99.9,29.85,ENE,70,2.0,9.0,-999,-99.99,,,-99.99,,2013-05-01 00:32:00,
2013-04-30 16:42:00,44.0,-99.9,29.84,NE,46,3.0,9.0,-999,-99.99,,,-99.99,,2013-05-01 00:42:00,
2013-04-30 16:52:00,44.0,-99.9,29.83,NNE,12,2.0,8.0,-999,-99.99,,,-99.99,,2013-05-01 00:52:00,
2013-04-30 17:01:00,44.0,-99.9,29.83,NNE,21,6.0,9.0,-999,-99.99,,,-99.99,,2013-05-01 01:01:00,
2013-04-30 17:11:00,43.0,-99.9,29.82,NNE,32,5.0,9.0,-999,-99.99,,,-99.99,,2013-05-01 01:11:00,
2013-04-30 17:21:00,44.0,-99.9,29.81,North,5,5.0,9.0,-999,-99.99,,,-99.99,,2013-05-01 01:21:00,
2013-04-30 17:32:00,43.0,-99.9,29.81,North,2,6.0,10.0,-999,-99.99,,,-99.99,,2013-05-01 01:32:00,
2013-04-30 17:42:00,44.0,-99.9,29.80,North,4,5.0,9.0,-999,-99.99,,,-99.99,,2013-05-01 01:42:00,
2013-04-30 17:52:00,43.0,-99.9,29.80,North,-999,6.0,11.0,-999,-99.99,,,-99.99,,2013-05-01 01:52:00,
2013-04-30 18:02:00,44.0,-99.9,29.80,North,6,5.0,9.0,-999,-99.99,,,-99.99,,2013-05-01 02:02:00,
2013-04-30 18:11:00,43.0,-99.9,29.80,NNE,29,7.0,10.0,-999,-99.99,,,-99.99,,2013-05-01 02:11:00,
2013-04-30 18:22:00,43.0,-99.9,29.79,NNE,27,4.0,9.0,-999,-99.99,,,-99.99,,2013-05-01 02:22:00,
2013-04-30 18:32:00,43.0,-99.9,29.79,NNE,23,6.0,10.0,-999,-99.99,,,-99.99,,2013-05-01 02:32:00,
2013-04-30 18:42:00,43.0,-99.9,29.79,NNE,13,3.0,6.0,-999,-99.99,,,-99.99,,2013-05-01 02:42:00,
2013-04-30 18:52:00,42.0,-99.9,29.79,North,9,9.0,11.0,-999,-99.99,,,-99.99,,2013-05-01 02:52:00,
2013-04-30 19:02:00,42.0,-99.9,29.78,North,1,8.0,11.0,-999,-99.99,,,-99.99,,2013-05-01 03:02:00,
2013-04-30 19:11:00,42.0,-99.9,29.78,North,7,8.0,13.0,-999,-99.99,,,-99.99,,2013-05-01 03:11:00,
2013-04-30 19:22:00,40.0,-99.9,29.78,North,10,10.0,15.0,-999,-99.99,,,-99.99,,2013-05-01 03:22:00,
2013-04-30 19:33:00,40.0,-99.9,29.78,NNE,15,9.0,16.0,-999,-99.99,,,-99.99,,2013-05-01 03:33:00,
2013-04-30 19:43:00,39.0,-99.9,29.78,NNE,25,11.0,16.0,-999,-99.99,,,-99.99,,2013-05-01 03:43:00,
2013-04-30 19:53:00,39.0,-99.9,29.78,NNE,14,8.0,12.0,-999,-99.99,,,-99.99,,2013-05-01 03:53:00,
2013-04-30 20:03:00,39.0,-99.9,29.77,NNE,17,7.0,12.0,-999,-99.99,,,-99.99,,2013-05-01 04:03:00,
2013-04-30 20:12:00,38.0,-99.9,29.77,NNE,26,9.0,14.0,-999,-99.99,,,-99.99,,2013-05-01 04:12:00,
2013-04-30 20:23:00,38.0,-99.9,29.76,NNE,27,9.0,12.0,-999,-99.99,,,-99.99,,2013-05-01 04:23:00,
2013-04-30 20:32:00,38.0,-99.9,29.76,NNE,27,8.0,13.0,-999,-99.99,,,-99.99,,2013-05-01 04:32:00,
2013-04-30 20:43:00,38.0,-99.9,29.76,NNE,23,7.0,11.0,-999,-99.99,,,-99.99,,2013-05-01 04:43:00,
2013-04-30 20:52:00,38.0,-99.9,29.76,NNE,18,7.0,10.0,-999,-99.99,,,-99.99,,2013-05-01 04:52:00,
2013-04-30 21:02:00,38.0,-99.9,29.76,NNE,24,8.0,11.0,-999,-99.99,,,-99.99,,2013-05-01 05:02:00,
2013-04-30 21:12:00,38.0,-99.9,29.75,NNE,23,9.0,12.0,-999,-99.99,,,-99.99,,2013-05-01 05:12:00,
2013-04-30 21:22:00,38.0,-99.9,29.75,NNE,28,6.0,11.0,-999,-99.99,,,-99.99,,2013-05-01 05:22:00,
2013-04-30 21:32:00,37.0,-99.9,29.75,NNE,23,6.0,9.0,-999,-99.99,,,-99.99,,2013-05-01 05:32:00,
2013-04-30 21:42:00,38.0,-99.9,29.75,NNE,16,6.0,10.0,-999,-99.99,,,-99.99,,2013-05-01 05:42:00,
2013-04-30 21:52:00,38.0,-99.9,29.75,NNE,12,5.0,10.0,-999,-99.99,,,-99.99,,2013-05-01 05:52:00,
2013-04-30 22:02:00,38.0,-99.9,29.74,North,10,6.0,10.0,-999,-99.99,,,-99.99,,2013-05-01 06:02:00,
2013-04-30 22:12:00,38.0,-99.9,29.74,NNE,14,8.0,11.0,-999,-99.99,,,-99.99,,2013-05-01 06:12:00,
2013-04-30 22:22:00,38.0,-99.9,29.74,NNE,17,6.0,11.0,-999,-99.99,,,-99.99,,2013-05-01 06:22:00,
2013-04-30 22:32:00,38.0,-99.9,29.74,North,10,5.0,11.0,-999,-99.99,,,-99.99,,2013-05-01 06:32:00,
2013-04-30 22:42:00,38.0,-99.9,29.74,NNE,20,4.0,8.0,-999,-99.99,,,-99.99,,2013-05-01 06:42:00,
2013-04-30 22:52:00,38.0,-99.9,29.73,North,8,3.0,7.0,-999,-99.99,,,-99.99,,2013-05-01 06:52:00,
2013-04-30 23:01:00,38.0,-99.9,29.73,North,3,5.0,8.0,-999,-99.99,,,-99.99,,2013-05-01 07:01:00,
2013-04-30 23:11:00,38.0,-99.9,29.72,NNE,16,7.0,10.0,-999,-99.99,,,-99.99,,2013-05-01 07:11:00,
2013-04-30 23:22:00,38.0,-99.9,29.72,NNE,12,7.0,9.0,-999,-99.99,,,-99.99,,2013-05-01 07:22:00,
2013-04-30 23:32:00,38.0,-99.9,29.72,NNE,12,6.0,11.0,-999,-99.99,,,-99.99,,2013-05-01 07:32:00,
2013-04-30 23:42:00,38.0,-99.9,29.71,North,6,8.0,11.0,-999,-99.99,,,-99.99,,2013-05-01 07:42:00,
2013-04-30 23:52:00,38.0,-99.9,29.70,North,8,8.0,12.0,-999,-99.99,,,-99.99,,2013-05-01 07:52:00,